sensor_id;sensor_type;location;lat;lon;timestamp;temperature;humidity
37910;DHT22;23741;49.446;8.754;2023-04-24T00:00:17;15.90;61.00
37910;DHT22;23741;49.446;8.754;2023-04-24T00:02:19;15.90;60.80
37910;DHT22;23741;49.446;8.754;2023-04-24T00:04:21;15.90;60.70
37910;DHT22;23741;49.446;8.754;2023-04-24T00:06:23;15.90;60.80
37910;DHT22;23741;49.446;8.754;2023-04-24T00:08:25;15.80;60.90
37910;DHT22;23741;49.446;8.754;2023-04-24T00:10:26;15.80;60.70
37910;DHT22;23741;49.446;8.754;2023-04-24T00:12:28;15.80;61.10
37910;DHT22;23741;49.446;8.754;2023-04-24T00:14:30;15.80;60.80
37910;DHT22;23741;49.446;8.754;2023-04-24T00:16:32;15.80;60.50
37910;DHT22;23741;49.446;8.754;2023-04-24T00:18:33;15.80;60.50
37910;DHT22;23741;49.446;8.754;2023-04-24T00:20:35;15.80;60.60
37910;DHT22;23741;49.446;8.754;2023-04-24T00:22:37;15.80;60.80
37910;DHT22;23741;49.446;8.754;2023-04-24T00:24:39;15.80;60.70
37910;DHT22;23741;49.446;8.754;2023-04-24T00:26:40;15.80;60.80
37910;DHT22;23741;49.446;8.754;2023-04-24T00:28:42;15.80;60.80
37910;DHT22;23741;49.446;8.754;2023-04-24T00:30:44;15.80;60.70
37910;DHT22;23741;49.446;8.754;2023-04-24T00:32:46;15.80;60.50
37910;DHT22;23741;49.446;8.754;2023-04-24T00:34:48;15.80;60.70
37910;DHT22;23741;49.446;8.754;2023-04-24T00:36:50;15.80;60.50
37910;DHT22;23741;49.446;8.754;2023-04-24T00:38:53;15.80;60.70
37910;DHT22;23741;49.446;8.754;2023-04-24T00:40:55;15.80;60.40
37910;DHT22;23741;49.446;8.754;2023-04-24T00:42:57;15.80;60.40
37910;DHT22;23741;49.446;8.754;2023-04-24T00:44:59;15.80;60.60
37910;DHT22;23741;49.446;8.754;2023-04-24T00:47:02;15.80;60.30
37910;DHT22;23741;49.446;8.754;2023-04-24T00:49:04;15.80;60.60
37910;DHT22;23741;49.446;8.754;2023-04-24T00:51:06;15.80;60.60
37910;DHT22;23741;49.446;8.754;2023-04-24T00:53:08;15.80;60.30
37910;DHT22;23741;49.446;8.754;2023-04-24T00:55:10;15.80;60.50
37910;DHT22;23741;49.446;8.754;2023-04-24T00:57:12;15.80;60.20
37910;DHT22;23741;49.446;8.754;2023-04-24T00:59:15;15.80;60.60
37910;DHT22;23741;49.446;8.754;2023-04-24T01:01:21;15.80;60.70
37910;DHT22;23741;49.446;8.754;2023-04-24T01:03:25;15.70;60.50
37910;DHT22;23741;49.446;8.754;2023-04-24T01:05:27;15.70;60.30
37910;DHT22;23741;49.446;8.754;2023-04-24T01:07:29;15.70;60.30
37910;DHT22;23741;49.446;8.754;2023-04-24T01:09:31;15.70;60.50
37910;DHT22;23741;49.446;8.754;2023-04-24T01:11:33;15.70;60.60
37910;DHT22;23741;49.446;8.754;2023-04-24T01:13:34;15.70;60.70
37910;DHT22;23741;49.446;8.754;2023-04-24T01:15:37;15.70;60.70
37910;DHT22;23741;49.446;8.754;2023-04-24T01:17:39;15.70;60.70
37910;DHT22;23741;49.446;8.754;2023-04-24T01:19:41;15.70;60.70
37910;DHT22;23741;49.446;8.754;2023-04-24T01:21:43;15.70;60.90
37910;DHT22;23741;49.446;8.754;2023-04-24T01:23:45;15.70;60.80
37910;DHT22;23741;49.446;8.754;2023-04-24T01:25:47;15.70;60.90
37910;DHT22;23741;49.446;8.754;2023-04-24T01:27:49;15.70;60.90
37910;DHT22;23741;49.446;8.754;2023-04-24T01:29:51;15.70;60.90
37910;DHT22;23741;49.446;8.754;2023-04-24T01:31:53;15.70;60.90
37910;DHT22;23741;49.446;8.754;2023-04-24T01:33:56;15.70;60.90
37910;DHT22;23741;49.446;8.754;2023-04-24T01:35:58;15.70;60.80
37910;DHT22;23741;49.446;8.754;2023-04-24T01:38:00;15.70;60.80
37910;DHT22;23741;49.446;8.754;2023-04-24T01:40:01;15.80;61.00
37910;DHT22;23741;49.446;8.754;2023-04-24T01:42:05;15.70;60.70
37910;DHT22;23741;49.446;8.754;2023-04-24T01:44:07;15.80;60.70
37910;DHT22;23741;49.446;8.754;2023-04-24T01:46:09;15.70;60.50
37910;DHT22;23741;49.446;8.754;2023-04-24T01:48:11;15.80;60.70
37910;DHT22;23741;49.446;8.754;2023-04-24T01:50:13;15.70;60.70
37910;DHT22;23741;49.446;8.754;2023-04-24T01:52:15;15.70;60.70
37910;DHT22;23741;49.446;8.754;2023-04-24T01:54:17;15.70;60.70
37910;DHT22;23741;49.446;8.754;2023-04-24T01:56:22;15.70;60.70
37910;DHT22;23741;49.446;8.754;2023-04-24T01:58:24;15.70;60.70
37910;DHT22;23741;49.446;8.754;2023-04-24T02:00:26;15.70;60.80
37910;DHT22;23741;49.446;8.754;2023-04-24T02:02:27;15.70;61.00
37910;DHT22;23741;49.446;8.754;2023-04-24T02:04:31;15.70;60.80
37910;DHT22;23741;49.446;8.754;2023-04-24T02:06:32;15.70;61.10
37910;DHT22;23741;49.446;8.754;2023-04-24T02:08:34;15.70;60.80
37910;DHT22;23741;49.446;8.754;2023-04-24T02:10:36;15.70;60.80
37910;DHT22;23741;49.446;8.754;2023-04-24T02:12:38;15.70;60.80
37910;DHT22;23741;49.446;8.754;2023-04-24T02:14:40;15.70;61.20
37910;DHT22;23741;49.446;8.754;2023-04-24T02:16:44;15.70;61.00
37910;DHT22;23741;49.446;8.754;2023-04-24T02:18:46;15.70;60.70
37910;DHT22;23741;49.446;8.754;2023-04-24T02:20:48;15.70;60.80
37910;DHT22;23741;49.446;8.754;2023-04-24T02:22:49;15.70;60.70
37910;DHT22;23741;49.446;8.754;2023-04-24T02:24:52;15.70;60.80
37910;DHT22;23741;49.446;8.754;2023-04-24T02:26:53;15.70;60.80
37910;DHT22;23741;49.446;8.754;2023-04-24T02:28:56;15.70;60.90
37910;DHT22;23741;49.446;8.754;2023-04-24T02:30:57;15.70;60.80
37910;DHT22;23741;49.446;8.754;2023-04-24T02:33:00;15.70;60.90
37910;DHT22;23741;49.446;8.754;2023-04-24T02:35:01;15.70;60.50
37910;DHT22;23741;49.446;8.754;2023-04-24T02:37:03;15.70;60.80
37910;DHT22;23741;49.446;8.754;2023-04-24T02:39:05;15.70;60.80
37910;DHT22;23741;49.446;8.754;2023-04-24T02:41:07;15.70;60.90
37910;DHT22;23741;49.446;8.754;2023-04-24T02:43:08;15.70;61.00
37910;DHT22;23741;49.446;8.754;2023-04-24T02:45:11;15.70;61.20
37910;DHT22;23741;49.446;8.754;2023-04-24T02:47:13;15.70;60.90
37910;DHT22;23741;49.446;8.754;2023-04-24T02:49:15;15.70;61.00
37910;DHT22;23741;49.446;8.754;2023-04-24T02:51:16;15.70;61.00
37910;DHT22;23741;49.446;8.754;2023-04-24T02:53:18;15.70;60.90
37910;DHT22;23741;49.446;8.754;2023-04-24T02:55:20;15.70;60.80
37910;DHT22;23741;49.446;8.754;2023-04-24T02:57:21;15.70;60.80
37910;DHT22;23741;49.446;8.754;2023-04-24T02:59:23;15.60;61.10
37910;DHT22;23741;49.446;8.754;2023-04-24T03:01:25;15.60;61.00
37910;DHT22;23741;49.446;8.754;2023-04-24T03:03:27;15.60;60.90
37910;DHT22;23741;49.446;8.754;2023-04-24T03:05:29;15.60;60.90
37910;DHT22;23741;49.446;8.754;2023-04-24T03:07:32;15.60;60.90
37910;DHT22;23741;49.446;8.754;2023-04-24T03:09:33;15.60;61.00
37910;DHT22;23741;49.446;8.754;2023-04-24T03:11:35;15.60;61.00
37910;DHT22;23741;49.446;8.754;2023-04-24T03:13:37;15.60;60.90
37910;DHT22;23741;49.446;8.754;2023-04-24T03:15:38;15.60;60.70
37910;DHT22;23741;49.446;8.754;2023-04-24T03:17:40;15.60;61.10
37910;DHT22;23741;49.446;8.754;2023-04-24T03:19:42;15.60;61.20
37910;DHT22;23741;49.446;8.754;2023-04-24T03:21:45;15.60;62.00
37910;DHT22;23741;49.446;8.754;2023-04-24T03:23:47;15.50;61.50
37910;DHT22;23741;49.446;8.754;2023-04-24T03:25:49;15.60;61.20
37910;DHT22;23741;49.446;8.754;2023-04-24T03:27:53;15.50;61.50
37910;DHT22;23741;49.446;8.754;2023-04-24T03:30:28;15.50;61.70
37910;DHT22;23741;49.446;8.754;2023-04-24T03:32:33;15.40;61.30
37910;DHT22;23741;49.446;8.754;2023-04-24T03:34:36;15.40;61.50
37910;DHT22;23741;49.446;8.754;2023-04-24T03:36:38;15.40;61.60
37910;DHT22;23741;49.446;8.754;2023-04-24T03:38:41;15.40;61.70
37910;DHT22;23741;49.446;8.754;2023-04-24T03:40:58;15.30;61.70
37910;DHT22;23741;49.446;8.754;2023-04-24T03:43:11;15.30;61.50
37910;DHT22;23741;49.446;8.754;2023-04-24T03:45:13;15.30;61.50
37910;DHT22;23741;49.446;8.754;2023-04-24T03:47:19;15.20;61.50
37910;DHT22;23741;49.446;8.754;2023-04-24T03:49:22;15.20;61.60
37910;DHT22;23741;49.446;8.754;2023-04-24T03:51:24;15.20;62.50
37910;DHT22;23741;49.446;8.754;2023-04-24T03:53:30;15.20;61.90
37910;DHT22;23741;49.446;8.754;2023-04-24T03:55:32;15.10;61.90
37910;DHT22;23741;49.446;8.754;2023-04-24T03:57:34;15.10;62.00
37910;DHT22;23741;49.446;8.754;2023-04-24T03:59:44;15.10;62.10
37910;DHT22;23741;49.446;8.754;2023-04-24T04:01:51;15.10;62.10
37910;DHT22;23741;49.446;8.754;2023-04-24T04:03:52;15.10;62.30
37910;DHT22;23741;49.446;8.754;2023-04-24T04:05:58;15.10;62.50
37910;DHT22;23741;49.446;8.754;2023-04-24T04:08:00;15.10;62.50
37910;DHT22;23741;49.446;8.754;2023-04-24T04:10:02;15.00;62.50
37910;DHT22;23741;49.446;8.754;2023-04-24T04:12:04;15.00;62.50
37910;DHT22;23741;49.446;8.754;2023-04-24T04:14:08;15.00;62.60
37910;DHT22;23741;49.446;8.754;2023-04-24T04:16:13;15.00;62.70
37910;DHT22;23741;49.446;8.754;2023-04-24T04:18:15;15.00;62.70
37910;DHT22;23741;49.446;8.754;2023-04-24T04:20:17;15.00;62.80
37910;DHT22;23741;49.446;8.754;2023-04-24T04:22:19;15.00;62.80
37910;DHT22;23741;49.446;8.754;2023-04-24T04:24:23;15.10;62.70
37910;DHT22;23741;49.446;8.754;2023-04-24T04:26:26;15.00;62.50
37910;DHT22;23741;49.446;8.754;2023-04-24T04:28:48;15.00;62.50
37910;DHT22;23741;49.446;8.754;2023-04-24T04:30:51;15.00;62.50
37910;DHT22;23741;49.446;8.754;2023-04-24T04:32:56;15.00;62.50
37910;DHT22;23741;49.446;8.754;2023-04-24T04:34:58;15.00;62.40
37910;DHT22;23741;49.446;8.754;2023-04-24T04:37:02;15.00;62.50
37910;DHT22;23741;49.446;8.754;2023-04-24T04:39:21;15.00;62.60
37910;DHT22;23741;49.446;8.754;2023-04-24T04:41:35;14.90;62.70
37910;DHT22;23741;49.446;8.754;2023-04-24T04:43:37;14.90;62.70
37910;DHT22;23741;49.446;8.754;2023-04-24T04:45:42;14.90;62.70
37910;DHT22;23741;49.446;8.754;2023-04-24T04:48:08;14.90;62.60
37910;DHT22;23741;49.446;8.754;2023-04-24T04:50:10;14.90;62.60
37910;DHT22;23741;49.446;8.754;2023-04-24T04:52:12;14.80;62.70
37910;DHT22;23741;49.446;8.754;2023-04-24T04:54:14;14.80;62.70
37910;DHT22;23741;49.446;8.754;2023-04-24T04:56:17;14.80;62.80
37910;DHT22;23741;49.446;8.754;2023-04-24T04:58:20;14.80;62.50
37910;DHT22;23741;49.446;8.754;2023-04-24T05:00:26;14.80;62.60
37910;DHT22;23741;49.446;8.754;2023-04-24T05:02:28;14.80;62.60
37910;DHT22;23741;49.446;8.754;2023-04-24T05:04:30;14.70;62.60
37910;DHT22;23741;49.446;8.754;2023-04-24T05:06:33;14.70;62.20
37910;DHT22;23741;49.446;8.754;2023-04-24T05:08:35;14.70;62.50
37910;DHT22;23741;49.446;8.754;2023-04-24T05:10:38;14.70;62.40
37910;DHT22;23741;49.446;8.754;2023-04-24T05:12:40;14.60;62.10
37910;DHT22;23741;49.446;8.754;2023-04-24T05:14:45;14.60;61.80
37910;DHT22;23741;49.446;8.754;2023-04-24T05:16:47;14.60;61.70
37910;DHT22;23741;49.446;8.754;2023-04-24T05:18:50;14.50;61.80
37910;DHT22;23741;49.446;8.754;2023-04-24T05:20:57;14.50;61.60
37910;DHT22;23741;49.446;8.754;2023-04-24T05:22:59;14.50;61.70
37910;DHT22;23741;49.446;8.754;2023-04-24T05:25:02;14.40;61.60
37910;DHT22;23741;49.446;8.754;2023-04-24T05:27:30;14.40;61.80
37910;DHT22;23741;49.446;8.754;2023-04-24T05:29:32;14.40;61.90
37910;DHT22;23741;49.446;8.754;2023-04-24T05:31:34;14.30;62.30
37910;DHT22;23741;49.446;8.754;2023-04-24T05:33:36;14.30;62.30
37910;DHT22;23741;49.446;8.754;2023-04-24T05:35:40;14.30;62.40
37910;DHT22;23741;49.446;8.754;2023-04-24T05:37:41;14.30;62.80
37910;DHT22;23741;49.446;8.754;2023-04-24T05:39:48;14.30;62.80
37910;DHT22;23741;49.446;8.754;2023-04-24T05:41:49;14.30;63.00
37910;DHT22;23741;49.446;8.754;2023-04-24T05:43:51;14.30;62.90
37910;DHT22;23741;49.446;8.754;2023-04-24T05:45:53;14.30;63.10
37910;DHT22;23741;49.446;8.754;2023-04-24T05:47:55;14.30;63.40
37910;DHT22;23741;49.446;8.754;2023-04-24T05:49:57;14.40;63.00
37910;DHT22;23741;49.446;8.754;2023-04-24T05:51:58;14.40;62.90
37910;DHT22;23741;49.446;8.754;2023-04-24T05:54:00;14.40;62.90
37910;DHT22;23741;49.446;8.754;2023-04-24T05:56:03;14.40;62.60
37910;DHT22;23741;49.446;8.754;2023-04-24T05:58:05;14.40;62.40
37910;DHT22;23741;49.446;8.754;2023-04-24T06:00:09;14.40;62.40
37910;DHT22;23741;49.446;8.754;2023-04-24T06:02:23;14.40;62.20
37910;DHT22;23741;49.446;8.754;2023-04-24T06:04:25;14.40;62.00
37910;DHT22;23741;49.446;8.754;2023-04-24T06:06:27;14.40;62.50
37910;DHT22;23741;49.446;8.754;2023-04-24T06:08:30;14.40;62.70
37910;DHT22;23741;49.446;8.754;2023-04-24T06:10:32;14.40;62.90
37910;DHT22;23741;49.446;8.754;2023-04-24T06:12:33;14.40;63.00
37910;DHT22;23741;49.446;8.754;2023-04-24T06:14:40;14.40;62.90
37910;DHT22;23741;49.446;8.754;2023-04-24T06:16:50;14.40;62.80
37910;DHT22;23741;49.446;8.754;2023-04-24T06:19:05;14.40;62.80
37910;DHT22;23741;49.446;8.754;2023-04-24T06:21:06;14.40;62.70
37910;DHT22;23741;49.446;8.754;2023-04-24T06:23:08;14.40;62.60
37910;DHT22;23741;49.446;8.754;2023-04-24T06:25:10;14.40;62.80
37910;DHT22;23741;49.446;8.754;2023-04-24T06:27:12;14.40;62.90
37910;DHT22;23741;49.446;8.754;2023-04-24T06:29:16;14.40;62.70
37910;DHT22;23741;49.446;8.754;2023-04-24T06:31:17;14.40;63.10
37910;DHT22;23741;49.446;8.754;2023-04-24T06:33:19;14.40;62.80
37910;DHT22;23741;49.446;8.754;2023-04-24T06:35:24;14.30;62.90
37910;DHT22;23741;49.446;8.754;2023-04-24T06:37:26;14.30;62.80
37910;DHT22;23741;49.446;8.754;2023-04-24T06:39:27;14.30;63.20
37910;DHT22;23741;49.446;8.754;2023-04-24T06:41:29;14.40;62.60
37910;DHT22;23741;49.446;8.754;2023-04-24T06:43:31;14.30;62.40
37910;DHT22;23741;49.446;8.754;2023-04-24T06:45:33;14.30;62.40
37910;DHT22;23741;49.446;8.754;2023-04-24T06:47:35;14.30;62.50
37910;DHT22;23741;49.446;8.754;2023-04-24T06:49:37;14.30;62.00
37910;DHT22;23741;49.446;8.754;2023-04-24T06:51:38;14.30;62.20
37910;DHT22;23741;49.446;8.754;2023-04-24T06:53:40;14.30;62.50
37910;DHT22;23741;49.446;8.754;2023-04-24T06:55:42;14.30;63.30
37910;DHT22;23741;49.446;8.754;2023-04-24T06:57:44;14.20;62.00
37910;DHT22;23741;49.446;8.754;2023-04-24T06:59:46;14.20;62.30
37910;DHT22;23741;49.446;8.754;2023-04-24T07:01:48;14.20;62.50
37910;DHT22;23741;49.446;8.754;2023-04-24T07:03:49;14.20;62.50
37910;DHT22;23741;49.446;8.754;2023-04-24T07:05:51;14.20;62.70
37910;DHT22;23741;49.446;8.754;2023-04-24T07:07:54;14.20;62.80
37910;DHT22;23741;49.446;8.754;2023-04-24T07:09:56;14.20;63.00
37910;DHT22;23741;49.446;8.754;2023-04-24T07:11:59;14.20;62.80
37910;DHT22;23741;49.446;8.754;2023-04-24T07:14:01;14.20;63.00
37910;DHT22;23741;49.446;8.754;2023-04-24T07:16:02;14.20;63.10
37910;DHT22;23741;49.446;8.754;2023-04-24T07:18:04;14.20;63.20
37910;DHT22;23741;49.446;8.754;2023-04-24T07:20:06;14.20;63.50
37910;DHT22;23741;49.446;8.754;2023-04-24T07:22:10;14.20;63.20
37910;DHT22;23741;49.446;8.754;2023-04-24T07:24:18;14.20;63.10
37910;DHT22;23741;49.446;8.754;2023-04-24T07:26:23;14.20;63.10
37910;DHT22;23741;49.446;8.754;2023-04-24T07:28:24;14.20;63.10
37910;DHT22;23741;49.446;8.754;2023-04-24T07:30:27;14.20;62.80
37910;DHT22;23741;49.446;8.754;2023-04-24T07:32:30;14.20;62.70
37910;DHT22;23741;49.446;8.754;2023-04-24T07:34:32;14.20;62.50
37910;DHT22;23741;49.446;8.754;2023-04-24T07:36:34;14.20;62.50
37910;DHT22;23741;49.446;8.754;2023-04-24T07:38:35;14.20;62.70
37910;DHT22;23741;49.446;8.754;2023-04-24T07:40:37;14.20;62.50
37910;DHT22;23741;49.446;8.754;2023-04-24T07:42:39;14.20;62.30
37910;DHT22;23741;49.446;8.754;2023-04-24T07:44:41;14.10;62.40
37910;DHT22;23741;49.446;8.754;2023-04-24T07:46:42;14.20;62.30
37910;DHT22;23741;49.446;8.754;2023-04-24T07:48:44;14.10;62.10
37910;DHT22;23741;49.446;8.754;2023-04-24T07:50:49;14.10;62.10
37910;DHT22;23741;49.446;8.754;2023-04-24T07:52:51;14.10;62.00
37910;DHT22;23741;49.446;8.754;2023-04-24T07:54:54;14.10;62.20
37910;DHT22;23741;49.446;8.754;2023-04-24T07:56:59;14.10;62.20
37910;DHT22;23741;49.446;8.754;2023-04-24T07:59:02;14.10;62.20
37910;DHT22;23741;49.446;8.754;2023-04-24T08:01:03;14.10;62.00
37910;DHT22;23741;49.446;8.754;2023-04-24T08:03:05;14.10;62.20
37910;DHT22;23741;49.446;8.754;2023-04-24T08:05:07;14.10;61.90
37910;DHT22;23741;49.446;8.754;2023-04-24T08:07:09;14.10;62.30
37910;DHT22;23741;49.446;8.754;2023-04-24T08:09:11;14.10;62.80
37910;DHT22;23741;49.446;8.754;2023-04-24T08:11:13;14.10;62.60
37910;DHT22;23741;49.446;8.754;2023-04-24T08:13:15;14.10;62.60
37910;DHT22;23741;49.446;8.754;2023-04-24T08:15:17;14.10;62.40
37910;DHT22;23741;49.446;8.754;2023-04-24T08:17:19;14.10;62.30
37910;DHT22;23741;49.446;8.754;2023-04-24T08:19:20;14.10;62.40
37910;DHT22;23741;49.446;8.754;2023-04-24T08:21:22;14.20;62.50
37910;DHT22;23741;49.446;8.754;2023-04-24T08:23:24;14.20;62.60
37910;DHT22;23741;49.446;8.754;2023-04-24T08:25:26;14.20;62.40
37910;DHT22;23741;49.446;8.754;2023-04-24T08:27:28;14.20;62.50
37910;DHT22;23741;49.446;8.754;2023-04-24T08:29:30;14.20;62.40
37910;DHT22;23741;49.446;8.754;2023-04-24T08:31:32;14.20;62.60
37910;DHT22;23741;49.446;8.754;2023-04-24T08:33:34;14.20;62.50
37910;DHT22;23741;49.446;8.754;2023-04-24T08:35:36;14.20;62.80
37910;DHT22;23741;49.446;8.754;2023-04-24T08:37:38;14.20;62.80
37910;DHT22;23741;49.446;8.754;2023-04-24T08:39:40;14.30;62.40
37910;DHT22;23741;49.446;8.754;2023-04-24T08:41:42;14.30;62.20
37910;DHT22;23741;49.446;8.754;2023-04-24T08:43:47;14.30;62.20
37910;DHT22;23741;49.446;8.754;2023-04-24T08:45:49;14.30;62.40
37910;DHT22;23741;49.446;8.754;2023-04-24T08:47:54;14.30;62.30
37910;DHT22;23741;49.446;8.754;2023-04-24T08:49:56;14.30;62.40
37910;DHT22;23741;49.446;8.754;2023-04-24T08:51:58;14.30;62.30
37910;DHT22;23741;49.446;8.754;2023-04-24T08:54:01;14.30;62.10
37910;DHT22;23741;49.446;8.754;2023-04-24T08:56:04;14.40;62.30
37910;DHT22;23741;49.446;8.754;2023-04-24T08:58:06;14.30;62.70
37910;DHT22;23741;49.446;8.754;2023-04-24T09:00:08;14.40;62.60
37910;DHT22;23741;49.446;8.754;2023-04-24T09:02:12;14.40;62.40
37910;DHT22;23741;49.446;8.754;2023-04-24T09:04:15;14.40;62.40
37910;DHT22;23741;49.446;8.754;2023-04-24T09:06:18;14.40;62.40
37910;DHT22;23741;49.446;8.754;2023-04-24T09:08:20;14.40;61.90
37910;DHT22;23741;49.446;8.754;2023-04-24T09:10:24;14.40;61.90
37910;DHT22;23741;49.446;8.754;2023-04-24T09:12:26;14.40;61.80
37910;DHT22;23741;49.446;8.754;2023-04-24T09:14:28;14.40;61.80
37910;DHT22;23741;49.446;8.754;2023-04-24T09:16:30;14.40;61.80
37910;DHT22;23741;49.446;8.754;2023-04-24T09:18:37;14.40;62.50
37910;DHT22;23741;49.446;8.754;2023-04-24T09:22:59;14.40;61.50
37910;DHT22;23741;49.446;8.754;2023-04-24T09:25:02;14.40;61.50
37910;DHT22;23741;49.446;8.754;2023-04-24T09:27:04;14.40;61.60
37910;DHT22;23741;49.446;8.754;2023-04-24T09:29:06;14.40;61.40
37910;DHT22;23741;49.446;8.754;2023-04-24T09:31:09;14.40;61.40
37910;DHT22;23741;49.446;8.754;2023-04-24T09:33:14;14.50;61.40
37910;DHT22;23741;49.446;8.754;2023-04-24T09:35:17;14.40;61.20
37910;DHT22;23741;49.446;8.754;2023-04-24T09:37:28;14.40;61.10
37910;DHT22;23741;49.446;8.754;2023-04-24T09:39:30;14.40;61.10
37910;DHT22;23741;49.446;8.754;2023-04-24T09:41:32;14.40;61.20
37910;DHT22;23741;49.446;8.754;2023-04-24T09:43:35;14.40;61.00
37910;DHT22;23741;49.446;8.754;2023-04-24T09:45:37;14.40;60.90
37910;DHT22;23741;49.446;8.754;2023-04-24T09:47:40;14.40;60.80
37910;DHT22;23741;49.446;8.754;2023-04-24T09:49:42;14.30;60.50
37910;DHT22;23741;49.446;8.754;2023-04-24T09:51:45;14.30;60.50
37910;DHT22;23741;49.446;8.754;2023-04-24T09:53:47;14.30;60.50
37910;DHT22;23741;49.446;8.754;2023-04-24T09:55:56;14.30;60.40
37910;DHT22;23741;49.446;8.754;2023-04-24T09:58:03;14.30;60.40
37910;DHT22;23741;49.446;8.754;2023-04-24T10:00:07;14.30;60.50
37910;DHT22;23741;49.446;8.754;2023-04-24T10:02:18;14.20;60.40
37910;DHT22;23741;49.446;8.754;2023-04-24T10:04:21;14.20;60.30
37910;DHT22;23741;49.446;8.754;2023-04-24T10:06:29;14.20;60.30
37910;DHT22;23741;49.446;8.754;2023-04-24T10:08:35;14.20;60.50
37910;DHT22;23741;49.446;8.754;2023-04-24T10:10:39;14.20;60.50
37910;DHT22;23741;49.446;8.754;2023-04-24T10:12:41;14.20;60.40
37910;DHT22;23741;49.446;8.754;2023-04-24T10:14:45;14.20;60.30
37910;DHT22;23741;49.446;8.754;2023-04-24T10:16:49;14.20;60.50
37910;DHT22;23741;49.446;8.754;2023-04-24T10:18:51;14.20;60.30
37910;DHT22;23741;49.446;8.754;2023-04-24T10:20:53;14.20;60.20
37910;DHT22;23741;49.446;8.754;2023-04-24T10:22:57;14.20;60.20
37910;DHT22;23741;49.446;8.754;2023-04-24T10:24:59;14.20;60.40
37910;DHT22;23741;49.446;8.754;2023-04-24T10:27:01;14.20;60.40
37910;DHT22;23741;49.446;8.754;2023-04-24T10:29:03;14.20;60.50
37910;DHT22;23741;49.446;8.754;2023-04-24T10:31:06;14.20;60.40
37910;DHT22;23741;49.446;8.754;2023-04-24T10:33:08;14.20;60.50
37910;DHT22;23741;49.446;8.754;2023-04-24T10:35:11;14.20;60.30
37910;DHT22;23741;49.446;8.754;2023-04-24T10:37:14;14.20;60.30
37910;DHT22;23741;49.446;8.754;2023-04-24T10:39:16;14.20;60.30
37910;DHT22;23741;49.446;8.754;2023-04-24T10:41:18;14.30;60.30
37910;DHT22;23741;49.446;8.754;2023-04-24T10:43:24;14.30;60.40
37910;DHT22;23741;49.446;8.754;2023-04-24T10:45:26;14.30;60.40
37910;DHT22;23741;49.446;8.754;2023-04-24T10:47:28;14.30;60.30
37910;DHT22;23741;49.446;8.754;2023-04-24T10:49:30;14.30;60.50
37910;DHT22;23741;49.446;8.754;2023-04-24T10:53:47;14.30;60.50
37910;DHT22;23741;49.446;8.754;2023-04-24T10:55:51;14.30;60.50
37910;DHT22;23741;49.446;8.754;2023-04-24T10:58:05;14.30;60.50
37910;DHT22;23741;49.446;8.754;2023-04-24T11:00:24;14.30;60.60
37910;DHT22;23741;49.446;8.754;2023-04-24T11:02:35;14.30;60.70
37910;DHT22;23741;49.446;8.754;2023-04-24T11:04:37;14.40;61.00
37910;DHT22;23741;49.446;8.754;2023-04-24T11:06:39;14.40;61.00
37910;DHT22;23741;49.446;8.754;2023-04-24T11:08:44;14.40;60.80
37910;DHT22;23741;49.446;8.754;2023-04-24T11:10:47;14.40;60.80
37910;DHT22;23741;49.446;8.754;2023-04-24T11:12:55;14.50;60.80
37910;DHT22;23741;49.446;8.754;2023-04-24T11:17:00;14.50;60.70
37910;DHT22;23741;49.446;8.754;2023-04-24T11:19:09;14.40;60.60
37910;DHT22;23741;49.446;8.754;2023-04-24T11:21:12;14.50;60.80
37910;DHT22;23741;49.446;8.754;2023-04-24T11:23:14;14.50;60.70
37910;DHT22;23741;49.446;8.754;2023-04-24T11:25:16;14.50;60.60
37910;DHT22;23741;49.446;8.754;2023-04-24T11:27:19;14.50;60.60
37910;DHT22;23741;49.446;8.754;2023-04-24T11:29:21;14.50;60.50
37910;DHT22;23741;49.446;8.754;2023-04-24T11:31:37;14.50;60.50
37910;DHT22;23741;49.446;8.754;2023-04-24T11:33:39;14.50;60.40
37910;DHT22;23741;49.446;8.754;2023-04-24T11:35:41;14.50;60.30
37910;DHT22;23741;49.446;8.754;2023-04-24T11:37:49;14.50;60.20
37910;DHT22;23741;49.446;8.754;2023-04-24T11:39:54;14.50;60.20
37910;DHT22;23741;49.446;8.754;2023-04-24T11:42:02;14.50;60.20
37910;DHT22;23741;49.446;8.754;2023-04-24T11:44:08;14.40;60.10
37910;DHT22;23741;49.446;8.754;2023-04-24T11:46:10;14.40;60.20
37910;DHT22;23741;49.446;8.754;2023-04-24T11:48:12;14.40;60.30
37910;DHT22;23741;49.446;8.754;2023-04-24T11:50:23;14.40;60.30
37910;DHT22;23741;49.446;8.754;2023-04-24T11:52:27;14.40;60.20
37910;DHT22;23741;49.446;8.754;2023-04-24T11:54:29;14.40;60.20
37910;DHT22;23741;49.446;8.754;2023-04-24T11:56:31;14.50;60.30
37910;DHT22;23741;49.446;8.754;2023-04-24T11:58:36;14.50;60.40
37910;DHT22;23741;49.446;8.754;2023-04-24T12:00:38;14.50;60.20
37910;DHT22;23741;49.446;8.754;2023-04-24T12:02:40;14.50;60.20
37910;DHT22;23741;49.446;8.754;2023-04-24T12:04:42;14.50;60.10
37910;DHT22;23741;49.446;8.754;2023-04-24T12:07:00;14.50;60.10
37910;DHT22;23741;49.446;8.754;2023-04-24T12:09:02;14.50;60.00
37910;DHT22;23741;49.446;8.754;2023-04-24T12:11:18;14.60;60.00
37910;DHT22;23741;49.446;8.754;2023-04-24T12:13:20;14.60;60.10
37910;DHT22;23741;49.446;8.754;2023-04-24T12:15:23;14.60;60.10
37910;DHT22;23741;49.446;8.754;2023-04-24T12:17:28;14.60;60.00
37910;DHT22;23741;49.446;8.754;2023-04-24T12:19:31;14.60;60.00
37910;DHT22;23741;49.446;8.754;2023-04-24T12:21:33;14.60;60.00
37910;DHT22;23741;49.446;8.754;2023-04-24T12:23:35;14.70;59.80
37910;DHT22;23741;49.446;8.754;2023-04-24T12:25:38;14.60;59.70
37910;DHT22;23741;49.446;8.754;2023-04-24T12:27:40;14.60;59.70
37910;DHT22;23741;49.446;8.754;2023-04-24T12:29:51;14.70;59.90
37910;DHT22;23741;49.446;8.754;2023-04-24T12:31:53;14.70;59.90
37910;DHT22;23741;49.446;8.754;2023-04-24T12:33:55;14.70;59.70
37910;DHT22;23741;49.446;8.754;2023-04-24T12:35:57;14.70;59.70
37910;DHT22;23741;49.446;8.754;2023-04-24T12:38:09;14.70;59.70
37910;DHT22;23741;49.446;8.754;2023-04-24T12:40:11;14.70;59.70
37910;DHT22;23741;49.446;8.754;2023-04-24T12:42:14;14.70;59.80
37910;DHT22;23741;49.446;8.754;2023-04-24T12:44:15;14.70;59.80
37910;DHT22;23741;49.446;8.754;2023-04-24T12:46:17;14.80;60.10
37910;DHT22;23741;49.446;8.754;2023-04-24T12:48:22;14.90;60.20
37910;DHT22;23741;49.446;8.754;2023-04-24T12:50:24;14.90;60.40
37910;DHT22;23741;49.446;8.754;2023-04-24T12:52:26;15.00;60.70
37910;DHT22;23741;49.446;8.754;2023-04-24T12:54:32;15.10;60.50
37910;DHT22;23741;49.446;8.754;2023-04-24T12:56:33;15.20;60.40
37910;DHT22;23741;49.446;8.754;2023-04-24T12:58:35;15.20;60.00
37910;DHT22;23741;49.446;8.754;2023-04-24T13:00:38;15.30;60.00
37910;DHT22;23741;49.446;8.754;2023-04-24T13:02:40;15.30;59.70
37910;DHT22;23741;49.446;8.754;2023-04-24T13:04:42;15.40;59.60